sensor_id;sensor_type;location;lat;lon;timestamp;P1;durP1;ratioP1;P2;durP2;ratioP2
7523;SDS011;3803;51.666;7.630;2022-12-07T00:00:02;26.08;;;18.30;;
7523;SDS011;3803;51.666;7.630;2022-12-07T00:00:25;25.15;;;18.30;;
7523;SDS011;3803;51.666;7.630;2022-12-07T00:00:45;24.83;;;18.10;;
7523;SDS011;3803;51.666;7.630;2022-12-07T00:01:07;25.23;;;18.40;;
7523;SDS011;3803;51.666;7.630;2022-12-07T00:01:48;23.67;;;17.98;;
7523;SDS011;3803;51.666;7.630;2022-12-07T00:02:09;23.55;;;18.02;;
7523;SDS011;3803;51.666;7.630;2022-12-07T00:02:30;24.02;;;17.77;;
7523;SDS011;3803;51.666;7.630;2022-12-07T00:02:51;25.27;;;18.02;;
7523;SDS011;3803;51.666;7.630;2022-12-07T00:03:12;24.15;;;17.08;;
7523;SDS011;3803;51.666;7.630;2022-12-07T00:03:33;22.70;;;16.90;;
7523;SDS011;3803;51.666;7.630;2022-12-07T00:03:54;23.35;;;17.30;;
7523;SDS011;3803;51.666;7.630;2022-12-07T00:04:20;23.60;;;18.23;;
7523;SDS011;3803;51.666;7.630;2022-12-07T00:04:41;23.40;;;18.07;;
7523;SDS011;3803;51.666;7.630;2022-12-07T00:05:01;23.40;;;18.00;;
7523;SDS011;3803;51.666;7.630;2022-12-07T00:05:22;22.75;;;17.50;;
7523;SDS011;3803;51.666;7.630;2022-12-07T00:05:43;24.87;;;18.20;;
7523;SDS011;3803;51.666;7.630;2022-12-07T00:06:03;24.55;;;17.83;;
7523;SDS011;3803;51.666;7.630;2022-12-07T00:06:25;24.65;;;18.33;;
7523;SDS011;3803;51.666;7.630;2022-12-07T00:06:47;23.65;;;18.08;;
7523;SDS011;3803;51.666;7.630;2022-12-07T00:07:12;25.20;;;18.35;;
7523;SDS011;3803;51.666;7.630;2022-12-07T00:07:32;24.53;;;18.20;;
7523;SDS011;3803;51.666;7.630;2022-12-07T00:07:53;23.00;;;17.95;;
7523;SDS011;3803;51.666;7.630;2022-12-07T00:08:13;23.37;;;17.77;;
7523;SDS011;3803;51.666;7.630;2022-12-07T00:08:34;23.53;;;17.70;;
7523;SDS011;3803;51.666;7.630;2022-12-07T00:08:55;24.73;;;17.70;;
7523;SDS011;3803;51.666;7.630;2022-12-07T00:09:17;24.13;;;18.00;;
7523;SDS011;3803;51.666;7.630;2022-12-07T00:09:38;22.95;;;17.25;;
7523;SDS011;3803;51.666;7.630;2022-12-07T00:09:59;21.95;;;17.20;;
7523;SDS011;3803;51.666;7.630;2022-12-07T00:10:19;21.73;;;16.67;;
7523;SDS011;3803;51.666;7.630;2022-12-07T00:10:40;23.30;;;16.85;;
7523;SDS011;3803;51.666;7.630;2022-12-07T00:11:04;24.57;;;16.30;;
7523;SDS011;3803;51.666;7.630;2022-12-07T00:11:30;24.30;;;16.10;;
7523;SDS011;3803;51.666;7.630;2022-12-07T00:11:50;23.10;;;16.43;;
7523;SDS011;3803;51.666;7.630;2022-12-07T00:12:12;20.70;;;16.45;;
7523;SDS011;3803;51.666;7.630;2022-12-07T00:12:32;22.07;;;16.40;;
7523;SDS011;3803;51.666;7.630;2022-12-07T00:12:53;23.13;;;16.50;;
7523;SDS011;3803;51.666;7.630;2022-12-07T00:13:13;23.80;;;16.55;;
7523;SDS011;3803;51.666;7.630;2022-12-07T00:13:34;23.20;;;16.40;;
7523;SDS011;3803;51.666;7.630;2022-12-07T00:13:57;21.25;;;15.75;;
7523;SDS011;3803;51.666;7.630;2022-12-07T00:14:20;22.17;;;15.70;;
7523;SDS011;3803;51.666;7.630;2022-12-07T00:14:41;23.52;;;16.30;;
7523;SDS011;3803;51.666;7.630;2022-12-07T00:15:02;22.80;;;16.10;;
7523;SDS011;3803;51.666;7.630;2022-12-07T00:15:23;21.90;;;16.00;;
7523;SDS011;3803;51.666;7.630;2022-12-07T00:15:43;20.73;;;15.93;;
7523;SDS011;3803;51.666;7.630;2022-12-07T00:16:06;21.17;;;16.05;;
7523;SDS011;3803;51.666;7.630;2022-12-07T00:16:32;21.83;;;15.70;;
7523;SDS011;3803;51.666;7.630;2022-12-07T00:16:53;22.10;;;15.90;;
7523;SDS011;3803;51.666;7.630;2022-12-07T00:17:14;22.00;;;15.90;;
7523;SDS011;3803;51.666;7.630;2022-12-07T00:17:34;21.27;;;16.23;;
7523;SDS011;3803;51.666;7.630;2022-12-07T00:17:55;20.98;;;15.80;;
7523;SDS011;3803;51.666;7.630;2022-12-07T00:18:16;21.15;;;16.15;;
7523;SDS011;3803;51.666;7.630;2022-12-07T00:18:37;20.80;;;15.90;;
7523;SDS011;3803;51.666;7.630;2022-12-07T00:18:58;21.74;;;16.56;;
7523;SDS011;3803;51.666;7.630;2022-12-07T00:19:19;21.25;;;15.88;;
7523;SDS011;3803;51.666;7.630;2022-12-07T00:19:40;21.33;;;15.63;;
7523;SDS011;3803;51.666;7.630;2022-12-07T00:20:00;20.20;;;15.20;;
7523;SDS011;3803;51.666;7.630;2022-12-07T00:20:21;19.83;;;15.73;;
7523;SDS011;3803;51.666;7.630;2022-12-07T00:20:42;19.15;;;15.40;;
7523;SDS011;3803;51.666;7.630;2022-12-07T00:21:03;19.10;;;15.40;;
7523;SDS011;3803;51.666;7.630;2022-12-07T00:21:27;20.58;;;15.38;;
7523;SDS011;3803;51.666;7.630;2022-12-07T00:21:49;21.38;;;15.80;;
7523;SDS011;3803;51.666;7.630;2022-12-07T00:22:09;20.23;;;15.60;;
7523;SDS011;3803;51.666;7.630;2022-12-07T00:22:30;21.30;;;15.37;;
7523;SDS011;3803;51.666;7.630;2022-12-07T00:22:51;22.27;;;15.07;;
7523;SDS011;3803;51.666;7.630;2022-12-07T00:23:12;24.42;;;15.50;;
7523;SDS011;3803;51.666;7.630;2022-12-07T00:23:33;22.75;;;15.50;;
7523;SDS011;3803;51.666;7.630;2022-12-07T00:23:54;22.60;;;16.00;;
7523;SDS011;3803;51.666;7.630;2022-12-07T00:24:16;20.63;;;15.40;;
7523;SDS011;3803;51.666;7.630;2022-12-07T00:24:36;20.70;;;15.60;;
7523;SDS011;3803;51.666;7.630;2022-12-07T00:24:57;19.40;;;15.50;;
7523;SDS011;3803;51.666;7.630;2022-12-07T00:25:17;20.23;;;15.57;;
7523;SDS011;3803;51.666;7.630;2022-12-07T00:25:38;20.20;;;15.53;;
7523;SDS011;3803;51.666;7.630;2022-12-07T00:26:09;20.17;;;15.38;;
7523;SDS011;3803;51.666;7.630;2022-12-07T00:26:32;20.90;;;15.90;;
7523;SDS011;3803;51.666;7.630;2022-12-07T00:26:55;26.85;;;16.88;;
7523;SDS011;3803;51.666;7.630;2022-12-07T00:27:25;28.60;;;16.90;;
7523;SDS011;3803;51.666;7.630;2022-12-07T00:27:47;24.90;;;16.00;;
7523;SDS011;3803;51.666;7.630;2022-12-07T00:28:07;23.73;;;15.97;;
7523;SDS011;3803;51.666;7.630;2022-12-07T00:28:29;23.33;;;16.20;;
7523;SDS011;3803;51.666;7.630;2022-12-07T00:28:51;20.73;;;16.30;;
7523;SDS011;3803;51.666;7.630;2022-12-07T00:29:15;22.23;;;17.05;;
7523;SDS011;3803;51.666;7.630;2022-12-07T00:29:37;23.85;;;17.40;;
7523;SDS011;3803;51.666;7.630;2022-12-07T00:29:58;22.20;;;16.03;;
7523;SDS011;3803;51.666;7.630;2022-12-07T00:30:19;22.60;;;15.73;;
7523;SDS011;3803;51.666;7.630;2022-12-07T00:30:39;21.60;;;15.68;;
7523;SDS011;3803;51.666;7.630;2022-12-07T00:31:04;22.23;;;16.25;;
7523;SDS011;3803;51.666;7.630;2022-12-07T00:31:31;21.63;;;16.02;;
7523;SDS011;3803;51.666;7.630;2022-12-07T00:31:55;21.77;;;16.48;;
7523;SDS011;3803;51.666;7.630;2022-12-07T00:32:15;22.50;;;16.35;;
7523;SDS011;3803;51.666;7.630;2022-12-07T00:32:36;20.25;;;16.23;;
7523;SDS011;3803;51.666;7.630;2022-12-07T00:32:57;19.97;;;16.30;;
7523;SDS011;3803;51.666;7.630;2022-12-07T00:33:48;21.70;;;15.65;;
7523;SDS011;3803;51.666;7.630;2022-12-07T00:34:12;21.75;;;15.90;;
7523;SDS011;3803;51.666;7.630;2022-12-07T00:34:34;21.85;;;16.17;;
7523;SDS011;3803;51.666;7.630;2022-12-07T00:34:55;21.58;;;15.98;;
7523;SDS011;3803;51.666;7.630;2022-12-07T00:35:21;21.42;;;15.82;;
7523;SDS011;3803;51.666;7.630;2022-12-07T00:35:42;21.48;;;15.98;;
7523;SDS011;3803;51.666;7.630;2022-12-07T00:36:03;22.13;;;15.57;;
7523;SDS011;3803;51.666;7.630;2022-12-07T00:36:27;22.38;;;15.85;;
7523;SDS011;3803;51.666;7.630;2022-12-07T00:36:48;25.20;;;16.63;;
7523;SDS011;3803;51.666;7.630;2022-12-07T00:37:09;26.25;;;17.23;;
7523;SDS011;3803;51.666;7.630;2022-12-07T00:37:30;25.50;;;16.85;;
7523;SDS011;3803;51.666;7.630;2022-12-07T00:37:51;22.15;;;16.20;;
7523;SDS011;3803;51.666;7.630;2022-12-07T00:38:11;20.10;;;15.63;;
7523;SDS011;3803;51.666;7.630;2022-12-07T00:38:33;20.67;;;16.48;;
7523;SDS011;3803;51.666;7.630;2022-12-07T00:38:54;20.55;;;16.60;;
7523;SDS011;3803;51.666;7.630;2022-12-07T00:39:17;21.45;;;16.35;;
7523;SDS011;3803;51.666;7.630;2022-12-07T00:39:37;22.65;;;16.70;;
7523;SDS011;3803;51.666;7.630;2022-12-07T00:39:58;21.83;;;16.75;;
7523;SDS011;3803;51.666;7.630;2022-12-07T00:40:19;20.67;;;16.60;;
7523;SDS011;3803;51.666;7.630;2022-12-07T00:40:39;20.52;;;16.08;;
7523;SDS011;3803;51.666;7.630;2022-12-07T00:41:02;20.48;;;15.88;;
7523;SDS011;3803;51.666;7.630;2022-12-07T00:41:25;21.10;;;16.23;;
7523;SDS011;3803;51.666;7.630;2022-12-07T00:41:47;21.10;;;15.90;;
7523;SDS011;3803;51.666;7.630;2022-12-07T00:42:07;21.57;;;15.70;;
7523;SDS011;3803;51.666;7.630;2022-12-07T00:42:28;20.60;;;15.75;;
7523;SDS011;3803;51.666;7.630;2022-12-07T00:42:48;21.30;;;16.58;;
7523;SDS011;3803;51.666;7.630;2022-12-07T00:43:09;19.50;;;16.07;;
7523;SDS011;3803;51.666;7.630;2022-12-07T00:43:30;21.10;;;16.42;;
7523;SDS011;3803;51.666;7.630;2022-12-07T00:43:51;21.35;;;15.80;;
7523;SDS011;3803;51.666;7.630;2022-12-07T00:44:12;22.88;;;16.67;;
7523;SDS011;3803;51.666;7.630;2022-12-07T00:44:33;22.10;;;16.67;;
7523;SDS011;3803;51.666;7.630;2022-12-07T00:44:53;21.77;;;16.98;;
7523;SDS011;3803;51.666;7.630;2022-12-07T00:45:14;21.73;;;16.48;;
7523;SDS011;3803;51.666;7.630;2022-12-07T00:45:34;21.43;;;16.00;;
7523;SDS011;3803;51.666;7.630;2022-12-07T00:45:55;21.35;;;15.93;;
7523;SDS011;3803;51.666;7.630;2022-12-07T00:46:17;21.02;;;15.80;;
7523;SDS011;3803;51.666;7.630;2022-12-07T00:46:38;22.02;;;15.60;;
7523;SDS011;3803;51.666;7.630;2022-12-07T00:46:59;22.20;;;15.73;;
7523;SDS011;3803;51.666;7.630;2022-12-07T00:47:19;23.47;;;15.87;;
7523;SDS011;3803;51.666;7.630;2022-12-07T00:47:40;22.55;;;16.33;;
7523;SDS011;3803;51.666;7.630;2022-12-07T00:48:01;22.40;;;16.15;;
7523;SDS011;3803;51.666;7.630;2022-12-07T00:48:21;21.03;;;16.57;;
7523;SDS011;3803;51.666;7.630;2022-12-07T00:48:42;21.88;;;16.40;;
7523;SDS011;3803;51.666;7.630;2022-12-07T00:49:03;21.67;;;16.30;;
7523;SDS011;3803;51.666;7.630;2022-12-07T00:49:24;22.13;;;16.10;;
7523;SDS011;3803;51.666;7.630;2022-12-07T00:49:44;21.67;;;16.27;;
7523;SDS011;3803;51.666;7.630;2022-12-07T00:50:05;20.90;;;16.08;;
7523;SDS011;3803;51.666;7.630;2022-12-07T00:50:26;20.40;;;16.27;;
7523;SDS011;3803;51.666;7.630;2022-12-07T00:50:47;19.35;;;15.75;;
7523;SDS011;3803;51.666;7.630;2022-12-07T00:51:09;21.15;;;16.00;;
7523;SDS011;3803;51.666;7.630;2022-12-07T00:51:31;24.67;;;16.67;;
7523;SDS011;3803;51.666;7.630;2022-12-07T00:51:52;24.67;;;16.80;;
7523;SDS011;3803;51.666;7.630;2022-12-07T00:52:13;22.88;;;16.40;;
7523;SDS011;3803;51.666;7.630;2022-12-07T00:52:33;20.87;;;15.47;;
7523;SDS011;3803;51.666;7.630;2022-12-07T00:52:54;20.83;;;15.73;;
7523;SDS011;3803;51.666;7.630;2022-12-07T00:53:15;20.55;;;15.60;;
7523;SDS011;3803;51.666;7.630;2022-12-07T00:53:37;20.20;;;15.85;;
7523;SDS011;3803;51.666;7.630;2022-12-07T00:53:58;19.67;;;15.68;;
7523;SDS011;3803;51.666;7.630;2022-12-07T00:54:19;19.00;;;15.60;;
7523;SDS011;3803;51.666;7.630;2022-12-07T00:54:40;20.80;;;15.60;;
7523;SDS011;3803;51.666;7.630;2022-12-07T00:55:00;21.65;;;15.90;;
7523;SDS011;3803;51.666;7.630;2022-12-07T00:55:21;21.88;;;16.20;;
7523;SDS011;3803;51.666;7.630;2022-12-07T00:55:41;19.83;;;16.00;;
7523;SDS011;3803;51.666;7.630;2022-12-07T00:56:06;19.90;;;16.30;;
7523;SDS011;3803;51.666;7.630;2022-12-07T00:56:27;20.35;;;15.95;;
7523;SDS011;3803;51.666;7.630;2022-12-07T00:56:49;19.95;;;15.77;;
7523;SDS011;3803;51.666;7.630;2022-12-07T00:57:09;20.07;;;15.53;;
7523;SDS011;3803;51.666;7.630;2022-12-07T00:57:30;20.05;;;15.82;;
7523;SDS011;3803;51.666;7.630;2022-12-07T00:57:51;19.63;;;15.35;;
7523;SDS011;3803;51.666;7.630;2022-12-07T00:58:12;19.60;;;15.18;;
7523;SDS011;3803;51.666;7.630;2022-12-07T00:58:32;19.42;;;15.27;;
7523;SDS011;3803;51.666;7.630;2022-12-07T00:58:54;20.15;;;15.80;;
7523;SDS011;3803;51.666;7.630;2022-12-07T00:59:19;20.67;;;16.13;;
7523;SDS011;3803;51.666;7.630;2022-12-07T00:59:40;21.83;;;16.13;;
7523;SDS011;3803;51.666;7.630;2022-12-07T01:00:00;21.63;;;15.83;;
7523;SDS011;3803;51.666;7.630;2022-12-07T01:00:21;23.40;;;15.90;;
7523;SDS011;3803;51.666;7.630;2022-12-07T01:00:42;22.67;;;15.50;;
7523;SDS011;3803;51.666;7.630;2022-12-07T01:01:04;21.80;;;15.25;;
7523;SDS011;3803;51.666;7.630;2022-12-07T01:01:27;20.88;;;15.70;;
7523;SDS011;3803;51.666;7.630;2022-12-07T01:01:50;21.40;;;16.63;;
7523;SDS011;3803;51.666;7.630;2022-12-07T01:02:11;22.25;;;16.75;;
7523;SDS011;3803;51.666;7.630;2022-12-07T01:02:31;21.52;;;16.30;;
7523;SDS011;3803;51.666;7.630;2022-12-07T01:02:52;21.27;;;15.83;;
7523;SDS011;3803;51.666;7.630;2022-12-07T01:03:13;21.75;;;16.10;;
7523;SDS011;3803;51.666;7.630;2022-12-07T01:03:35;23.20;;;16.20;;
7523;SDS011;3803;51.666;7.630;2022-12-07T01:03:56;22.20;;;15.73;;
7523;SDS011;3803;51.666;7.630;2022-12-07T01:04:17;21.33;;;15.50;;
7523;SDS011;3803;51.666;7.630;2022-12-07T01:04:37;20.47;;;15.57;;
7523;SDS011;3803;51.666;7.630;2022-12-07T01:04:58;21.00;;;15.80;;
7523;SDS011;3803;51.666;7.630;2022-12-07T01:05:19;22.50;;;16.17;;
7523;SDS011;3803;51.666;7.630;2022-12-07T01:05:39;21.52;;;15.85;;
7523;SDS011;3803;51.666;7.630;2022-12-07T01:06:00;21.17;;;15.90;;
7523;SDS011;3803;51.666;7.630;2022-12-07T01:06:22;21.60;;;15.68;;
7523;SDS011;3803;51.666;7.630;2022-12-07T01:06:43;21.80;;;16.00;;
7523;SDS011;3803;51.666;7.630;2022-12-07T01:07:04;21.97;;;16.33;;
7523;SDS011;3803;51.666;7.630;2022-12-07T01:07:24;20.75;;;16.23;;
7523;SDS011;3803;51.666;7.630;2022-12-07T01:07:45;20.93;;;16.27;;
7523;SDS011;3803;51.666;7.630;2022-12-07T01:08:06;20.15;;;15.80;;
7523;SDS011;3803;51.666;7.630;2022-12-07T01:08:27;19.88;;;15.80;;
7523;SDS011;3803;51.666;7.630;2022-12-07T01:08:48;21.13;;;16.17;;
7523;SDS011;3803;51.666;7.630;2022-12-07T01:09:09;22.08;;;16.10;;
7523;SDS011;3803;51.666;7.630;2022-12-07T01:09:30;23.13;;;16.75;;
7523;SDS011;3803;51.666;7.630;2022-12-07T01:09:50;21.97;;;16.40;;
7523;SDS011;3803;51.666;7.630;2022-12-07T01:10:11;21.50;;;16.60;;
7523;SDS011;3803;51.666;7.630;2022-12-07T01:10:31;20.67;;;16.20;;
7523;SDS011;3803;51.666;7.630;2022-12-07T01:11:05;21.02;;;16.40;;
7523;SDS011;3803;51.666;7.630;2022-12-07T01:11:28;22.90;;;16.30;;
7523;SDS011;3803;51.666;7.630;2022-12-07T01:11:50;23.15;;;16.40;;
7523;SDS011;3803;51.666;7.630;2022-12-07T01:12:10;21.08;;;16.20;;
7523;SDS011;3803;51.666;7.630;2022-12-07T01:12:31;21.15;;;16.17;;
7523;SDS011;3803;51.666;7.630;2022-12-07T01:12:51;21.50;;;16.47;;
7523;SDS011;3803;51.666;7.630;2022-12-07T01:13:12;21.98;;;16.65;;
7523;SDS011;3803;51.666;7.630;2022-12-07T01:13:35;22.58;;;16.92;;
7523;SDS011;3803;51.666;7.630;2022-12-07T01:13:56;23.15;;;16.63;;
7523;SDS011;3803;51.666;7.630;2022-12-07T01:14:18;21.58;;;16.30;;
7523;SDS011;3803;51.666;7.630;2022-12-07T01:14:41;21.00;;;15.97;;
7523;SDS011;3803;51.666;7.630;2022-12-07T01:15:02;20.08;;;15.93;;
7523;SDS011;3803;51.666;7.630;2022-12-07T01:15:22;20.45;;;15.90;;
7523;SDS011;3803;51.666;7.630;2022-12-07T01:15:43;20.97;;;16.00;;
7523;SDS011;3803;51.666;7.630;2022-12-07T01:16:05;22.48;;;16.63;;
7523;SDS011;3803;51.666;7.630;2022-12-07T01:16:27;23.00;;;17.00;;
7523;SDS011;3803;51.666;7.630;2022-12-07T01:16:49;23.10;;;17.20;;
7523;SDS011;3803;51.666;7.630;2022-12-07T01:17:10;22.60;;;17.20;;
7523;SDS011;3803;51.666;7.630;2022-12-07T01:17:31;22.40;;;16.80;;
7523;SDS011;3803;51.666;7.630;2022-12-07T01:17:51;22.50;;;16.70;;
7523;SDS011;3803;51.666;7.630;2022-12-07T01:18:12;22.27;;;16.50;;
7523;SDS011;3803;51.666;7.630;2022-12-07T01:18:34;24.30;;;17.10;;
7523;SDS011;3803;51.666;7.630;2022-12-07T01:18:55;24.75;;;16.95;;
7523;SDS011;3803;51.666;7.630;2022-12-07T01:19:17;24.05;;;16.52;;
7523;SDS011;3803;51.666;7.630;2022-12-07T01:19:38;24.00;;;16.63;;
7523;SDS011;3803;51.666;7.630;2022-12-07T01:19:58;24.52;;;16.92;;
7523;SDS011;3803;51.666;7.630;2022-12-07T01:20:19;22.93;;;16.80;;
7523;SDS011;3803;51.666;7.630;2022-12-07T01:20:40;22.70;;;16.40;;
7523;SDS011;3803;51.666;7.630;2022-12-07T01:21:04;23.38;;;16.00;;
7523;SDS011;3803;51.666;7.630;2022-12-07T01:21:29;24.90;;;16.25;;
7523;SDS011;3803;51.666;7.630;2022-12-07T01:21:56;24.77;;;16.90;;
7523;SDS011;3803;51.666;7.630;2022-12-07T01:22:16;23.23;;;16.90;;
7523;SDS011;3803;51.666;7.630;2022-12-07T01:22:37;22.50;;;17.00;;
7523;SDS011;3803;51.666;7.630;2022-12-07T01:22:58;22.73;;;16.80;;
7523;SDS011;3803;51.666;7.630;2022-12-07T01:23:19;22.88;;;16.70;;
7523;SDS011;3803;51.666;7.630;2022-12-07T01:23:40;22.63;;;16.27;;
7523;SDS011;3803;51.666;7.630;2022-12-07T01:24:00;22.67;;;16.42;;
7523;SDS011;3803;51.666;7.630;2022-12-07T01:24:21;22.97;;;16.70;;
7523;SDS011;3803;51.666;7.630;2022-12-07T01:24:42;23.33;;;16.97;;
7523;SDS011;3803;51.666;7.630;2022-12-07T01:25:02;22.63;;;16.83;;
7523;SDS011;3803;51.666;7.630;2022-12-07T01:25:23;23.80;;;17.08;;
7523;SDS011;3803;51.666;7.630;2022-12-07T01:25:44;26.02;;;17.23;;
7523;SDS011;3803;51.666;7.630;2022-12-07T01:26:07;25.77;;;17.55;;
7523;SDS011;3803;51.666;7.630;2022-12-07T01:26:31;22.90;;;17.20;;
7523;SDS011;3803;51.666;7.630;2022-12-07T01:26:51;21.83;;;16.97;;
7523;SDS011;3803;51.666;7.630;2022-12-07T01:27:12;21.50;;;16.52;;
7523;SDS011;3803;51.666;7.630;2022-12-07T01:27:33;21.42;;;16.45;;
7523;SDS011;3803;51.666;7.630;2022-12-07T01:27:55;21.52;;;16.60;;
7523;SDS011;3803;51.666;7.630;2022-12-07T01:28:16;22.88;;;17.20;;
7523;SDS011;3803;51.666;7.630;2022-12-07T01:28:37;22.48;;;16.85;;
7523;SDS011;3803;51.666;7.630;2022-12-07T01:28:58;23.00;;;16.90;;
7523;SDS011;3803;51.666;7.630;2022-12-07T01:29:20;21.75;;;16.50;;
7523;SDS011;3803;51.666;7.630;2022-12-07T01:29:41;20.38;;;16.50;;
7523;SDS011;3803;51.666;7.630;2022-12-07T01:30:02;19.93;;;16.10;;
7523;SDS011;3803;51.666;7.630;2022-12-07T01:30:26;20.92;;;15.93;;
7523;SDS011;3803;51.666;7.630;2022-12-07T01:30:54;23.70;;;16.63;;
7523;SDS011;3803;51.666;7.630;2022-12-07T01:31:20;24.10;;;16.98;;
7523;SDS011;3803;51.666;7.630;2022-12-07T01:31:42;22.45;;;16.33;;
7523;SDS011;3803;51.666;7.630;2022-12-07T01:32:03;24.00;;;16.30;;
7523;SDS011;3803;51.666;7.630;2022-12-07T01:32:24;24.67;;;16.60;;
7523;SDS011;3803;51.666;7.630;2022-12-07T01:32:44;23.87;;;16.70;;
7523;SDS011;3803;51.666;7.630;2022-12-07T01:33:05;22.67;;;16.83;;
7523;SDS011;3803;51.666;7.630;2022-12-07T01:33:28;21.55;;;16.55;;
7523;SDS011;3803;51.666;7.630;2022-12-07T01:33:52;22.55;;;16.50;;
7523;SDS011;3803;51.666;7.630;2022-12-07T01:34:13;23.00;;;15.90;;
7523;SDS011;3803;51.666;7.630;2022-12-07T01:34:34;22.48;;;15.90;;
7523;SDS011;3803;51.666;7.630;2022-12-07T01:34:54;22.07;;;15.90;;
7523;SDS011;3803;51.666;7.630;2022-12-07T01:35:15;20.85;;;16.75;;
7523;SDS011;3803;51.666;7.630;2022-12-07T01:35:36;20.20;;;16.27;;
7523;SDS011;3803;51.666;7.630;2022-12-07T01:36:31;20.60;;;16.70;;
7523;SDS011;3803;51.666;7.630;2022-12-07T01:36:45;22.50;;;16.38;;
7523;SDS011;3803;51.666;7.630;2022-12-07T01:37:05;24.52;;;16.42;;
7523;SDS011;3803;51.666;7.630;2022-12-07T01:37:26;25.33;;;16.90;;
7523;SDS011;3803;51.666;7.630;2022-12-07T01:37:47;26.07;;;16.90;;
7523;SDS011;3803;51.666;7.630;2022-12-07T01:38:07;23.58;;;16.35;;
7523;SDS011;3803;51.666;7.630;2022-12-07T01:38:28;20.87;;;15.93;;
7523;SDS011;3803;51.666;7.630;2022-12-07T01:38:51;22.30;;;16.40;;
7523;SDS011;3803;51.666;7.630;2022-12-07T01:39:16;25.60;;;16.90;;
7523;SDS011;3803;51.666;7.630;2022-12-07T01:39:37;25.85;;;16.80;;
7523;SDS011;3803;51.666;7.630;2022-12-07T01:39:57;23.63;;;16.57;;
7523;SDS011;3803;51.666;7.630;2022-12-07T01:40:18;22.50;;;16.10;;
7523;SDS011;3803;51.666;7.630;2022-12-07T01:40:38;22.40;;;16.33;;
7523;SDS011;3803;51.666;7.630;2022-12-07T01:40:59;21.73;;;16.20;;
7523;SDS011;3803;51.666;7.630;2022-12-07T01:41:22;23.33;;;16.60;;
7523;SDS011;3803;51.666;7.630;2022-12-07T01:41:43;22.90;;;16.40;;
7523;SDS011;3803;51.666;7.630;2022-12-07T01:42:03;21.45;;;15.90;;
7523;SDS011;3803;51.666;7.630;2022-12-07T01:42:24;19.50;;;15.30;;
7523;SDS011;3803;51.666;7.630;2022-12-07T01:42:45;20.63;;;15.13;;
7523;SDS011;3803;51.666;7.630;2022-12-07T01:43:14;21.20;;;15.45;;
7523;SDS011;3803;51.666;7.630;2022-12-07T01:45:38;21.65;;;15.15;;
7523;SDS011;3803;51.666;7.630;2022-12-07T01:46:01;22.40;;;15.85;;
7523;SDS011;3803;51.666;7.630;2022-12-07T01:46:23;20.90;;;16.02;;
7523;SDS011;3803;51.666;7.630;2022-12-07T01:46:48;21.00;;;15.60;;
7523;SDS011;3803;51.666;7.630;2022-12-07T01:47:09;21.50;;;15.70;;
7523;SDS011;3803;51.666;7.630;2022-12-07T01:47:29;21.92;;;15.82;;
7523;SDS011;3803;51.666;7.630;2022-12-07T01:47:51;20.63;;;15.80;;
7523;SDS011;3803;51.666;7.630;2022-12-07T01:48:16;20.20;;;15.48;;
7523;SDS011;3803;51.666;7.630;2022-12-07T01:48:40;21.55;;;15.30;;
7523;SDS011;3803;51.666;7.630;2022-12-07T01:49:03;21.42;;;15.40;;
7523;SDS011;3803;51.666;7.630;2022-12-07T01:49:57;19.30;;;14.77;;
7523;SDS011;3803;51.666;7.630;2022-12-07T01:50:18;21.30;;;15.60;;
7523;SDS011;3803;51.666;7.630;2022-12-07T01:50:39;21.40;;;15.77;;
7523;SDS011;3803;51.666;7.630;2022-12-07T01:51:04;22.48;;;15.45;;
7523;SDS011;3803;51.666;7.630;2022-12-07T01:51:28;21.23;;;14.75;;
7523;SDS011;3803;51.666;7.630;2022-12-07T01:51:51;21.27;;;14.70;;
7523;SDS011;3803;51.666;7.630;2022-12-07T01:52:18;19.15;;;14.27;;
7523;SDS011;3803;51.666;7.630;2022-12-07T01:52:43;20.60;;;14.65;;
7523;SDS011;3803;51.666;7.630;2022-12-07T01:53:07;22.08;;;15.82;;
7523;SDS011;3803;51.666;7.630;2022-12-07T01:53:30;20.63;;;15.82;;
7523;SDS011;3803;51.666;7.630;2022-12-07T01:53:54;19.65;;;15.30;;
7523;SDS011;3803;51.666;7.630;2022-12-07T01:54:15;20.00;;;14.63;;
7523;SDS011;3803;51.666;7.630;2022-12-07T01:54:37;20.90;;;15.00;;
7523;SDS011;3803;51.666;7.630;2022-12-07T01:54:59;19.67;;;15.05;;
7523;SDS011;3803;51.666;7.630;2022-12-07T01:55:24;20.02;;;15.40;;
7523;SDS011;3803;51.666;7.630;2022-12-07T01:55:46;21.80;;;15.20;;
7523;SDS011;3803;51.666;7.630;2022-12-07T01:56:10;22.90;;;15.07;;
7523;SDS011;3803;51.666;7.630;2022-12-07T01:56:36;24.33;;;16.00;;
7523;SDS011;3803;51.666;7.630;2022-12-07T01:57:00;21.48;;;16.08;;
7523;SDS011;3803;51.666;7.630;2022-12-07T01:57:21;22.27;;;16.10;;
7523;SDS011;3803;51.666;7.630;2022-12-07T01:57:47;23.17;;;15.93;;
7523;SDS011;3803;51.666;7.630;2022-12-07T01:58:10;21.95;;;15.38;;
7523;SDS011;3803;51.666;7.630;2022-12-07T01:58:32;20.67;;;14.93;;
7523;SDS011;3803;51.666;7.630;2022-12-07T01:58:53;20.25;;;15.30;;
7523;SDS011;3803;51.666;7.630;2022-12-07T01:59:16;20.73;;;15.43;;
7523;SDS011;3803;51.666;7.630;2022-12-07T01:59:38;21.08;;;15.43;;
7523;SDS011;3803;51.666;7.630;2022-12-07T01:59:59;20.15;;;15.27;;
7523;SDS011;3803;51.666;7.630;2022-12-07T02:00:32;19.63;;;15.57;;
7523;SDS011;3803;51.666;7.630;2022-12-07T02:00:53;19.80;;;16.13;;
7523;SDS011;3803;51.666;7.630;2022-12-07T02:01:14;20.23;;;16.30;;
7523;SDS011;3803;51.666;7.630;2022-12-07T02:01:34;20.30;;;16.03;;
7523;SDS011;3803;51.666;7.630;2022-12-07T02:01:55;20.75;;;15.55;;
7523;SDS011;3803;51.666;7.630;2022-12-07T02:02:18;21.55;;;15.35;;
7523;SDS011;3803;51.666;7.630;2022-12-07T02:02:45;21.52;;;15.43;;
7523;SDS011;3803;51.666;7.630;2022-12-07T02:03:13;19.67;;;15.20;;
7523;SDS011;3803;51.666;7.630;2022-12-07T02:03:40;20.20;;;14.77;;
7523;SDS011;3803;51.666;7.630;2022-12-07T02:04:02;21.60;;;14.70;;
7523;SDS011;3803;51.666;7.630;2022-12-07T02:04:23;21.15;;;15.18;;
7523;SDS011;3803;51.666;7.630;2022-12-07T02:04:44;22.48;;;16.08;;
7523;SDS011;3803;51.666;7.630;2022-12-07T02:05:06;21.55;;;16.30;;
7523;SDS011;3803;51.666;7.630;2022-12-07T02:05:27;22.83;;;16.23;;
7523;SDS011;3803;51.666;7.630;2022-12-07T02:05:48;22.17;;;15.53;;
7523;SDS011;3803;51.666;7.630;2022-12-07T02:06:11;22.55;;;15.68;;
7523;SDS011;3803;51.666;7.630;2022-12-07T02:06:36;24.25;;;16.00;;
7523;SDS011;3803;51.666;7.630;2022-12-07T02:06:57;24.25;;;16.08;;
7523;SDS011;3803;51.666;7.630;2022-12-07T02:07:18;24.08;;;15.80;;
7523;SDS011;3803;51.666;7.630;2022-12-07T02:07:40;22.00;;;15.35;;
7523;SDS011;3803;51.666;7.630;2022-12-07T02:08:01;21.08;;;15.30;;
7523;SDS011;3803;51.666;7.630;2022-12-07T02:08:23;22.65;;;16.10;;
7523;SDS011;3803;51.666;7.630;2022-12-07T02:08:44;22.10;;;15.80;;
7523;SDS011;3803;51.666;7.630;2022-12-07T02:09:06;22.38;;;15.60;;
7523;SDS011;3803;51.666;7.630;2022-12-07T02:09:27;21.23;;;15.60;;
7523;SDS011;3803;51.666;7.630;2022-12-07T02:09:47;21.95;;;15.70;;
7523;SDS011;3803;51.666;7.630;2022-12-07T02:10:14;20.40;;;15.40;;
7523;SDS011;3803;51.666;7.630;2022-12-07T02:10:34;19.90;;;15.63;;
7523;SDS011;3803;51.666;7.630;2022-12-07T02:10:55;19.67;;;15.65;;
7523;SDS011;3803;51.666;7.630;2022-12-07T02:11:19;20.55;;;15.50;;
7523;SDS011;3803;51.666;7.630;2022-12-07T02:11:40;20.05;;;15.57;;
7523;SDS011;3803;51.666;7.630;2022-12-07T02:12:01;19.38;;;15.40;;
7523;SDS011;3803;51.666;7.630;2022-12-07T02:12:23;19.30;;;15.35;;
7523;SDS011;3803;51.666;7.630;2022-12-07T02:12:45;21.88;;;15.70;;
7523;SDS011;3803;51.666;7.630;2022-12-07T02:13:13;23.27;;;15.95;;
7523;SDS011;3803;51.666;7.630;2022-12-07T02:13:38;23.85;;;15.82;;
7523;SDS011;3803;51.666;7.630;2022-12-07T02:14:01;22.10;;;15.70;;
7523;SDS011;3803;51.666;7.630;2022-12-07T02:14:21;24.35;;;15.60;;
7523;SDS011;3803;51.666;7.630;2022-12-07T02:14:42;22.55;;;15.00;;
7523;SDS011;3803;51.666;7.630;2022-12-07T02:15:03;23.30;;;15.27;;